Terminal Aerodrome Forecast
Issued by NWS Louisville, KY

Home | Current Version | Previous Version | Text Only | Print | Product List | Glossary On
Versions: 1 2 3 4 5 6 7 8 9 10 11 12 13 14 15 16 17 18 19 20 21 22 23 24
424
FTUS43 KLMK 101120
TAFSDF
TAF
KSDF 101120Z 1012/1118 28012KT 6SM -SHSN SCT025 BKN045
      TEMPO 1012/1014 1SM -SHSN BKN025
     FM101400 28011KT P6SM VCSH SCT025 BKN035
     FM101900 27010KT P6SM BKN035
     FM110300 30004KT P6SM BKN040=

USA.gov is the U.S. government's official web portal to all federal, state and local government web resources and services.